createdAt,value
2023-04-12T00:01:15.485Z,2.59
2023-04-12T00:03:44.292Z,2.53
2023-04-12T00:06:13.991Z,2.46
2023-04-12T00:08:42.856Z,2.38
2023-04-12T00:11:11.608Z,2.30
2023-04-12T00:13:40.418Z,2.24
2023-04-12T00:16:15.807Z,2.03
2023-04-12T00:18:45.742Z,2.18
2023-04-12T00:21:17.723Z,2.19
2023-04-12T00:23:46.983Z,2.24
2023-04-12T00:26:15.934Z,2.25
2023-04-12T00:28:46.118Z,2.26
2023-04-12T00:31:15.990Z,2.26
2023-04-12T00:33:44.766Z,2.25
2023-04-12T00:36:13.647Z,2.26
2023-04-12T00:38:45.874Z,2.27
2023-04-12T00:41:14.720Z,2.25
2023-04-12T00:43:43.682Z,2.30
2023-04-12T00:46:12.924Z,2.34
2023-04-12T00:48:42.780Z,2.36
2023-04-12T00:51:11.663Z,2.34
2023-04-12T00:53:41.913Z,2.34
2023-04-12T00:56:12.009Z,2.34
2023-04-12T00:58:41.581Z,2.31
2023-04-12T01:01:10.626Z,2.24
2023-04-12T01:03:44.838Z,2.23
2023-04-12T01:06:29.875Z,2.14
2023-04-12T01:09:12.326Z,1.98
2023-04-12T01:11:52.377Z,1.98
2023-04-12T01:14:46.211Z,1.96
2023-04-12T01:17:24.943Z,1.61
2023-04-12T01:20:13.274Z,1.86
2023-04-12T01:23:41.935Z,1.79
2023-04-12T01:26:23.997Z,1.76
2023-04-12T01:28:56.484Z,1.74
2023-04-12T01:31:27.886Z,1.72
2023-04-12T01:33:58.432Z,1.68
2023-04-12T01:36:29.326Z,1.66
2023-04-12T01:38:58.655Z,1.63
2023-04-12T01:41:27.191Z,1.57
2023-04-12T01:43:57.506Z,1.64
2023-04-12T01:46:26.804Z,1.62
2023-04-12T01:48:56.041Z,1.63
2023-04-12T01:51:38.440Z,1.63
2023-04-12T01:54:12.886Z,1.59
2023-04-12T01:56:47.660Z,1.55
2023-04-12T01:59:20.029Z,1.51
2023-04-12T02:01:48.938Z,1.52
2023-04-12T02:04:19.262Z,1.52
2023-04-12T02:06:49.281Z,1.53
2023-04-12T02:09:18.014Z,1.48
2023-04-12T02:11:49.713Z,1.46
2023-04-12T02:14:19.715Z,1.32
2023-04-12T02:16:50.728Z,1.49
2023-04-12T02:19:20.157Z,1.48
2023-04-12T02:21:52.308Z,1.46
2023-04-12T02:24:21.437Z,1.03
2023-04-12T02:26:50.863Z,1.40
2023-04-12T02:29:21.825Z,1.37
2023-04-12T02:31:51.257Z,1.34
2023-04-12T02:34:21.496Z,1.34
2023-04-12T02:36:56.764Z,1.33
2023-04-12T02:39:26.001Z,1.32
2023-04-12T02:41:54.800Z,1.33
2023-04-12T02:44:24.622Z,1.31
2023-04-12T02:47:14.451Z,1.24
2023-04-12T02:49:47.066Z,1.21
2023-04-12T02:52:18.395Z,1.21
2023-04-12T02:55:06.793Z,1.19
2023-04-12T02:57:38.438Z,1.20
2023-04-12T03:00:12.770Z,1.20
2023-04-12T03:02:49.922Z,1.20
2023-04-12T03:05:24.500Z,1.20
2023-04-12T03:07:54.064Z,1.24
2023-04-12T03:10:28.557Z,1.20
2023-04-12T03:13:05.039Z,1.17
2023-04-12T03:15:50.697Z,0.59
2023-04-12T03:18:21.790Z,1.12
2023-04-12T03:20:53.554Z,1.09
2023-04-12T03:23:22.287Z,1.10
2023-04-12T03:26:00.711Z,1.10
2023-04-12T03:28:36.448Z,1.09
2023-04-12T03:31:10.625Z,1.09
2023-04-12T03:33:47.398Z,1.09
2023-04-12T03:36:27.180Z,1.06
2023-04-12T03:39:10.672Z,1.01
2023-04-12T03:41:40.492Z,0.98
2023-04-12T03:44:09.764Z,0.97
2023-04-12T03:46:39.835Z,0.95
2023-04-12T03:49:12.271Z,0.91
2023-04-12T03:51:42.904Z,0.90
2023-04-12T03:54:12.433Z,0.87
2023-04-12T03:56:52.057Z,0.84
2023-04-12T03:59:26.843Z,0.87
2023-04-12T04:01:58.465Z,0.68
2023-04-12T04:04:29.641Z,1.08
2023-04-12T04:07:02.588Z,1.12
2023-04-12T04:09:36.240Z,1.05
2023-04-12T04:12:05.713Z,0.99
2023-04-12T04:14:36.963Z,0.92
2023-04-12T04:17:09.400Z,0.87
2023-04-12T04:19:38.127Z,0.85
2023-04-12T04:22:08.188Z,0.83
2023-04-12T04:24:39.155Z,0.84
2023-04-12T04:27:09.381Z,0.88
2023-04-12T04:29:44.416Z,0.91
2023-04-12T04:32:16.889Z,0.93
2023-04-12T04:34:47.759Z,0.94
2023-04-12T04:37:19.855Z,0.96
2023-04-12T04:39:50.886Z,0.58
2023-04-12T04:42:19.945Z,1.00
2023-04-12T04:45:04.619Z,1.06
2023-04-12T04:47:40.771Z,1.10
2023-04-12T04:50:10.420Z,1.17
2023-04-12T04:52:41.028Z,1.22
2023-04-12T04:55:14.232Z,1.26
2023-04-12T04:57:46.504Z,1.06
2023-04-12T05:00:16.599Z,1.28
2023-04-12T05:02:50.616Z,1.51
2023-04-12T05:05:26.148Z,1.62
2023-04-12T05:08:02.002Z,1.71
2023-04-12T05:10:32.606Z,1.82
2023-04-12T05:13:04.254Z,1.95
2023-04-12T05:15:32.884Z,1.93
2023-04-12T05:18:03.611Z,2.13
2023-04-12T05:20:32.691Z,2.16
2023-04-12T05:23:01.452Z,2.23
2023-04-12T05:25:29.958Z,2.30
2023-04-12T05:28:11.528Z,2.38
2023-04-12T05:30:40.989Z,2.48
2023-04-12T05:33:12.828Z,2.56
2023-04-12T05:35:46.851Z,2.65
2023-04-12T05:38:15.358Z,2.76
2023-04-12T05:40:46.474Z,2.88
2023-04-12T05:43:17.828Z,2.99
2023-04-12T05:45:46.369Z,3.13
2023-04-12T05:48:16.357Z,3.24
2023-04-12T05:50:52.622Z,3.32
2023-04-12T05:53:23.683Z,3.39
2023-04-12T05:55:54.343Z,3.62
2023-04-12T05:58:24.196Z,3.73
2023-04-12T06:00:55.852Z,3.88
2023-04-12T06:03:26.058Z,4.05
2023-04-12T06:05:59.244Z,4.21
2023-04-12T06:08:29.402Z,4.32
2023-04-12T06:10:58.016Z,4.43
2023-04-12T06:13:28.768Z,4.51
2023-04-12T06:15:57.884Z,4.61
2023-04-12T06:18:27.958Z,4.71
2023-04-12T06:20:56.789Z,4.84
2023-04-12T06:23:25.826Z,4.91
2023-04-12T06:25:54.904Z,4.99
2023-04-12T06:28:23.487Z,5.11
2023-04-12T06:30:54.855Z,5.22
2023-04-12T06:33:24.292Z,5.30
2023-04-12T06:35:55.318Z,5.39
2023-04-12T06:38:24.570Z,5.49
2023-04-12T06:40:53.397Z,5.61
2023-04-12T06:43:22.823Z,5.69
2023-04-12T06:45:51.317Z,5.78
2023-04-12T06:48:20.196Z,5.84
2023-04-12T06:50:48.883Z,5.92
2023-04-12T06:53:18.634Z,6.00
2023-04-12T06:55:47.363Z,6.06
2023-04-12T06:58:16.188Z,6.16
2023-04-12T07:00:47.764Z,6.28
2023-04-12T07:03:16.237Z,6.41
2023-04-12T07:05:45.141Z,6.53
2023-04-12T07:08:13.659Z,6.66
2023-04-12T07:10:43.362Z,6.75
2023-04-12T07:13:12.073Z,6.85
2023-04-12T07:15:40.940Z,6.97
2023-04-12T07:18:10.113Z,7.09
2023-04-12T07:20:38.550Z,7.19
2023-04-12T07:23:07.002Z,7.27
2023-04-12T07:25:38.005Z,7.36
2023-04-12T07:28:09.029Z,7.46
2023-04-12T07:30:39.928Z,7.58
2023-04-12T07:33:19.168Z,7.68
2023-04-12T07:35:48.600Z,7.78
2023-04-12T07:38:17.142Z,7.83
2023-04-12T07:40:47.694Z,7.95
2023-04-12T07:43:19.826Z,8.05
2023-04-12T07:45:49.398Z,8.11
2023-04-12T07:48:17.956Z,8.19
2023-04-12T07:50:46.891Z,8.30
2023-04-12T07:53:23.264Z,8.49
2023-04-12T07:55:52.253Z,8.60
2023-04-12T07:58:24.120Z,8.70
2023-04-12T08:00:53.100Z,8.83
2023-04-12T08:03:21.967Z,9.01
2023-04-12T08:05:53.844Z,9.08
2023-04-12T08:08:23.229Z,9.18
2023-04-12T08:10:52.562Z,9.22
2023-04-12T08:13:22.907Z,9.33
2023-04-12T08:15:52.008Z,9.37
2023-04-12T08:18:21.082Z,9.51
2023-04-12T08:20:49.821Z,9.63
2023-04-12T08:23:18.892Z,9.67
2023-04-12T08:25:47.623Z,9.73
2023-04-12T08:28:16.737Z,9.83
2023-04-12T08:30:46.866Z,9.94
2023-04-12T08:33:15.635Z,9.97
2023-04-12T08:35:44.403Z,10.08
2023-04-12T08:38:12.860Z,10.02
2023-04-12T08:40:44.388Z,10.26
2023-04-12T08:43:14.015Z,10.33
2023-04-12T08:45:43.073Z,10.34
2023-04-12T08:48:13.488Z,10.50
2023-04-12T08:50:45.518Z,10.56
2023-04-12T08:53:14.280Z,10.57
2023-04-12T08:55:45.667Z,10.65
2023-04-12T08:58:16.592Z,10.76
2023-04-12T09:00:46.400Z,10.85
2023-04-12T09:03:16.377Z,10.83
2023-04-12T09:05:45.041Z,10.88
2023-04-12T09:08:13.728Z,10.95
2023-04-12T09:10:42.822Z,10.86
2023-04-12T09:13:11.672Z,11.03
2023-04-12T09:15:51.259Z,11.04
2023-04-12T09:18:21.101Z,11.19
2023-04-12T09:21:06.854Z,11.33
2023-04-12T09:23:36.347Z,11.36
2023-04-12T09:26:05.463Z,11.45
2023-04-12T09:28:34.124Z,11.46
2023-04-12T09:31:04.132Z,11.03
2023-04-12T09:33:39.376Z,11.48
2023-04-12T09:36:13.671Z,11.59
2023-04-12T09:38:43.969Z,11.71
2023-04-12T09:41:26.508Z,11.64
2023-04-12T09:43:56.102Z,11.64
2023-04-12T09:46:25.139Z,11.62
2023-04-12T09:48:58.662Z,11.68
2023-04-12T09:51:29.600Z,11.79
2023-04-12T09:54:01.457Z,11.79
2023-04-12T09:56:33.171Z,11.86
2023-04-12T09:59:04.668Z,11.93
2023-04-12T10:01:39.742Z,11.98
2023-04-12T10:04:11.505Z,11.97
2023-04-12T10:06:41.449Z,11.92
2023-04-12T10:09:11.232Z,12.18
2023-04-12T10:11:41.886Z,12.21
2023-04-12T10:14:15.018Z,11.98
2023-04-12T10:16:46.513Z,12.08
2023-04-12T10:19:18.241Z,12.16
2023-04-12T10:21:46.625Z,11.86
2023-04-12T10:24:16.648Z,12.10
2023-04-12T10:26:45.687Z,12.27
2023-04-12T10:29:30.242Z,12.20
2023-04-12T10:32:19.396Z,12.37
2023-04-12T10:34:56.168Z,12.41
2023-04-12T10:37:52.299Z,12.50
2023-04-12T10:40:21.149Z,12.55
2023-04-12T10:42:50.020Z,12.52
2023-04-12T10:45:40.442Z,12.58
2023-04-12T10:48:09.102Z,12.67
2023-04-12T10:50:39.071Z,12.68
2023-04-12T10:53:26.254Z,12.67
2023-04-12T10:55:55.227Z,12.81
2023-04-12T10:59:00.813Z,12.90
2023-04-12T11:01:37.787Z,12.88
2023-04-12T11:04:17.019Z,13.14
2023-04-12T11:07:02.929Z,13.12
2023-04-12T11:09:51.958Z,13.04
2023-04-12T11:12:30.263Z,13.02
2023-04-12T11:15:02.237Z,13.14
2023-04-12T11:18:00.955Z,13.28
2023-04-12T11:20:29.868Z,13.39
2023-04-12T11:23:03.455Z,13.33
2023-04-12T11:25:33.138Z,13.23
2023-04-12T11:28:04.072Z,13.12
2023-04-12T11:30:37.240Z,13.34
2023-04-12T11:33:06.250Z,13.65
2023-04-12T11:35:35.534Z,13.73
2023-04-12T11:38:05.794Z,13.70
2023-04-12T11:40:34.541Z,13.70
2023-04-12T11:43:03.114Z,13.72
2023-04-12T11:45:32.024Z,13.70
2023-04-12T11:48:00.658Z,13.68
2023-04-12T11:50:32.691Z,13.75
2023-04-12T11:53:19.495Z,13.84
2023-04-12T11:55:50.659Z,13.86
2023-04-12T11:58:23.638Z,13.80
2023-04-12T12:00:53.270Z,13.81
2023-04-12T12:03:22.345Z,13.89
2023-04-12T12:05:52.264Z,13.96
2023-04-12T12:08:24.396Z,13.96
2023-04-12T12:11:07.015Z,13.75
2023-04-12T12:13:47.794Z,13.66
2023-04-12T12:16:16.426Z,13.77
2023-04-12T12:18:47.099Z,13.90
2023-04-12T12:21:16.891Z,13.90
2023-04-12T12:23:48.912Z,13.77
2023-04-12T12:26:22.853Z,13.91
2023-04-12T12:28:53.233Z,14.19
2023-04-12T12:31:25.545Z,14.18
2023-04-12T12:33:57.837Z,13.92
2023-04-12T12:36:33.382Z,14.17
2023-04-12T12:39:10.721Z,14.25
2023-04-12T12:41:41.162Z,14.14
2023-04-12T12:44:11.285Z,14.25
2023-04-12T12:46:53.492Z,14.29
2023-04-12T12:49:24.270Z,14.29
2023-04-12T12:51:53.071Z,14.42
2023-04-12T12:54:39.272Z,14.45
2023-04-12T12:57:08.540Z,14.48
2023-04-12T12:59:37.353Z,14.34
2023-04-12T13:02:07.450Z,14.30
2023-04-12T13:04:36.446Z,14.26
2023-04-12T13:07:05.239Z,14.57
2023-04-12T13:09:35.080Z,14.77
2023-04-12T13:12:04.197Z,14.80
2023-04-12T13:14:32.964Z,14.83
2023-04-12T13:17:01.754Z,14.86
2023-04-12T13:19:30.566Z,14.92
2023-04-12T13:21:59.312Z,15.19
2023-04-12T13:24:27.791Z,15.85
2023-04-12T13:26:58.343Z,16.44
2023-04-12T13:29:27.332Z,16.78
2023-04-12T13:31:56.185Z,17.07
2023-04-12T13:34:24.840Z,17.17
2023-04-12T13:36:53.834Z,17.62
2023-04-12T13:39:22.967Z,17.77
2023-04-12T13:41:51.906Z,17.89
2023-04-12T13:44:22.298Z,17.89
2023-04-12T13:46:51.943Z,17.97
2023-04-12T13:49:20.466Z,17.80
2023-04-12T13:51:49.011Z,17.76
2023-04-12T13:54:17.492Z,17.68
2023-04-12T13:56:46.320Z,17.50
2023-04-12T13:59:15.335Z,17.38
2023-04-12T14:01:45.450Z,17.20
2023-04-12T14:04:14.128Z,16.71
2023-04-12T14:06:42.932Z,16.89
2023-04-12T14:09:11.731Z,17.08
2023-04-12T14:11:48.095Z,17.25
2023-04-12T14:14:17.097Z,17.70
2023-04-12T14:16:47.856Z,17.74
2023-04-12T14:19:16.583Z,17.77
2023-04-12T14:21:45.552Z,17.72
2023-04-12T14:24:14.377Z,17.82
2023-04-12T14:26:43.080Z,17.76
2023-04-12T14:29:11.579Z,17.62
2023-04-12T14:31:40.713Z,17.59
2023-04-12T14:34:11.126Z,17.35
2023-04-12T14:36:39.618Z,17.04
2023-04-12T14:39:11.591Z,17.04
2023-04-12T14:41:42.103Z,17.22
2023-04-12T14:44:11.030Z,17.13
2023-04-12T14:46:39.702Z,17.09
2023-04-12T14:49:09.927Z,16.97
2023-04-12T14:51:38.648Z,16.79
2023-04-12T14:54:07.190Z,16.60
2023-04-12T14:56:43.501Z,16.46
2023-04-12T14:59:18.425Z,16.25
2023-04-12T15:01:47.004Z,16.19
2023-04-12T15:04:17.229Z,16.14
2023-04-12T15:06:46.181Z,16.09
2023-04-12T15:09:17.715Z,16.13
2023-04-12T15:11:50.635Z,16.27
2023-04-12T15:14:20.614Z,16.40
2023-04-12T15:16:50.367Z,16.40
2023-04-12T15:19:23.431Z,16.30
2023-04-12T15:21:54.981Z,16.21
2023-04-12T15:24:24.366Z,15.83
2023-04-12T15:26:53.933Z,15.85
2023-04-12T15:29:24.360Z,15.61
2023-04-12T15:31:53.424Z,16.01
2023-04-12T15:34:25.225Z,15.92
2023-04-12T15:36:53.820Z,15.90
2023-04-12T15:39:22.529Z,15.81
2023-04-12T15:41:51.244Z,15.64
2023-04-12T15:44:20.044Z,15.54
2023-04-12T15:46:56.220Z,15.36
2023-04-12T15:49:35.596Z,15.23
2023-04-12T15:52:04.802Z,15.09
2023-04-12T15:54:33.636Z,14.88
2023-04-12T15:57:09.597Z,14.82
2023-04-12T15:59:38.827Z,14.79
2023-04-12T16:02:09.992Z,14.85
2023-04-12T16:04:40.513Z,14.64
2023-04-12T16:07:09.490Z,14.93
2023-04-12T16:09:40.562Z,14.97
2023-04-12T16:12:09.087Z,14.92
2023-04-12T16:14:38.085Z,15.17
2023-04-12T16:17:07.603Z,15.18
2023-04-12T16:19:36.368Z,15.18
2023-04-12T16:22:06.576Z,15.17
2023-04-12T16:24:37.460Z,15.31
2023-04-12T16:27:07.155Z,15.49
2023-04-12T16:29:35.602Z,15.52
2023-04-12T16:32:04.180Z,15.39
2023-04-12T16:34:33.709Z,15.15
2023-04-12T16:37:02.713Z,14.90
2023-04-12T16:39:33.986Z,14.26
2023-04-12T16:42:06.144Z,14.42
2023-04-12T16:44:34.928Z,14.54
2023-04-12T16:47:03.407Z,14.57
2023-04-12T16:49:32.195Z,14.61
2023-04-12T16:52:01.809Z,14.54
2023-04-12T16:54:31.865Z,14.42
2023-04-12T16:57:00.427Z,14.18
2023-04-12T16:59:29.481Z,13.94
2023-04-12T17:02:00.684Z,13.94
2023-04-12T17:04:30.049Z,13.88
2023-04-12T17:06:58.946Z,13.91
2023-04-12T17:09:28.060Z,13.86
2023-04-12T17:11:59.148Z,13.83
2023-04-12T17:14:30.880Z,13.81
2023-04-12T17:16:59.916Z,13.46
2023-04-12T17:19:28.667Z,13.72
2023-04-12T17:21:57.450Z,13.63
2023-04-12T17:24:26.666Z,13.62
2023-04-12T17:26:55.329Z,13.58
2023-04-12T17:29:25.638Z,13.39
2023-04-12T17:31:55.194Z,13.42
2023-04-12T17:34:23.672Z,13.27
2023-04-12T17:36:55.221Z,13.16
2023-04-12T17:39:23.956Z,13.02
2023-04-12T17:41:52.748Z,12.94
2023-04-12T17:44:21.502Z,12.85
2023-04-12T17:46:51.380Z,12.75
2023-04-12T17:49:20.211Z,12.68
2023-04-12T17:51:48.974Z,12.61
2023-04-12T17:54:17.728Z,12.56
2023-04-12T17:56:46.485Z,12.49
2023-04-12T17:59:15.788Z,12.44
2023-04-12T18:01:44.850Z,12.43
2023-04-12T18:04:14.958Z,12.17
2023-04-12T18:06:43.921Z,12.36
2023-04-12T18:09:12.860Z,12.34
2023-04-12T18:11:43.400Z,12.08
2023-04-12T18:14:13.607Z,12.31
2023-04-12T18:16:42.208Z,12.30
2023-04-12T18:19:11.516Z,12.29
2023-04-12T18:21:41.551Z,12.26
2023-04-12T18:24:10.680Z,12.06
2023-04-12T18:26:39.510Z,12.21
2023-04-12T18:29:08.292Z,12.21
2023-04-12T18:31:40.029Z,12.01
2023-04-12T18:34:09.339Z,12.17
2023-04-12T18:36:38.226Z,12.15
2023-04-12T18:39:08.926Z,12.11
2023-04-12T18:41:37.993Z,12.08
2023-04-12T18:44:09.180Z,12.06
2023-04-12T18:46:38.046Z,12.03
2023-04-12T18:49:06.768Z,12.03
2023-04-12T18:51:36.039Z,12.02
2023-04-12T18:54:07.330Z,12.01
2023-04-12T18:56:37.779Z,11.98
2023-04-12T18:59:06.359Z,11.95
2023-04-12T19:01:36.965Z,11.93
2023-04-12T19:04:05.892Z,11.95
2023-04-12T19:06:34.928Z,11.99
2023-04-12T19:09:04.292Z,11.99
2023-04-12T19:11:35.517Z,12.01
2023-04-12T19:14:07.615Z,11.98
2023-04-12T19:16:36.888Z,11.97
2023-04-12T19:19:06.050Z,11.98
2023-04-12T19:21:35.506Z,11.99
2023-04-12T19:24:04.723Z,11.96
2023-04-12T19:26:36.646Z,11.93
2023-04-12T19:29:08.733Z,11.92
2023-04-12T19:31:37.924Z,11.92
2023-04-12T19:34:06.937Z,11.95
2023-04-12T19:36:35.989Z,11.92
2023-04-12T19:39:06.295Z,11.95
2023-04-12T19:41:48.475Z,11.96
2023-04-12T19:44:18.840Z,12.01
2023-04-12T19:46:48.392Z,11.99
2023-04-12T19:49:17.117Z,12.00
2023-04-12T19:51:46.232Z,11.99
2023-04-12T19:54:15.026Z,12.05
2023-04-12T19:56:44.212Z,12.05
2023-04-12T19:59:13.452Z,11.94
2023-04-12T20:01:47.885Z,12.04
2023-04-12T20:04:17.563Z,12.04
2023-04-12T20:06:47.240Z,12.04
2023-04-12T20:09:16.132Z,12.05
2023-04-12T20:11:44.952Z,12.06
2023-04-12T20:14:13.456Z,12.02
2023-04-12T20:16:43.901Z,12.01
2023-04-12T20:19:13.281Z,12.08
2023-04-12T20:21:41.716Z,12.08
2023-04-12T20:24:10.116Z,12.10
2023-04-12T20:26:38.817Z,12.10
2023-04-12T20:29:08.005Z,12.11
2023-04-12T20:31:37.126Z,12.09
2023-04-12T20:34:07.024Z,12.07
2023-04-12T20:36:35.874Z,12.05
2023-04-12T20:39:05.584Z,12.05
2023-04-12T20:41:38.182Z,12.06
2023-04-12T20:44:08.426Z,12.06
2023-04-12T20:46:37.591Z,12.05
2023-04-12T20:49:07.609Z,12.04
2023-04-12T20:51:36.396Z,12.03
2023-04-12T20:54:05.133Z,12.02
2023-04-12T20:56:33.616Z,12.00
2023-04-12T20:59:02.816Z,11.97
2023-04-12T21:01:31.819Z,11.92
2023-04-12T21:04:06.312Z,11.57
2023-04-12T21:06:37.527Z,11.83
2023-04-12T21:09:06.868Z,11.77
2023-04-12T21:11:36.439Z,11.16
2023-04-12T21:14:05.158Z,11.57
2023-04-12T21:16:33.784Z,11.49
2023-04-12T21:19:02.829Z,11.40
2023-04-12T21:21:35.244Z,11.34
2023-04-12T21:24:04.605Z,11.32
2023-04-12T21:26:33.515Z,11.28
2023-04-12T21:29:02.480Z,11.29
2023-04-12T21:31:31.558Z,11.30
2023-04-12T21:34:02.204Z,11.29
2023-04-12T21:36:30.638Z,10.87
2023-04-12T21:39:01.201Z,11.25
2023-04-12T21:41:30.521Z,11.24
2023-04-12T21:43:58.936Z,11.22
2023-04-12T21:46:28.828Z,11.19
2023-04-12T21:48:57.656Z,11.19
2023-04-12T21:51:26.527Z,11.17
2023-04-12T21:53:55.309Z,11.17
2023-04-12T21:56:25.104Z,11.14
2023-04-12T21:58:53.596Z,11.07
2023-04-12T22:01:22.063Z,11.02
2023-04-12T22:03:50.891Z,10.96
2023-04-12T22:06:20.173Z,10.93
2023-04-12T22:08:49.633Z,10.88
2023-04-12T22:11:18.383Z,10.85
2023-04-12T22:13:48.203Z,10.83
2023-04-12T22:16:17.173Z,10.83
2023-04-12T22:18:47.666Z,10.86
2023-04-12T22:21:16.693Z,10.87
2023-04-12T22:23:45.769Z,10.89
2023-04-12T22:26:15.273Z,10.86
2023-04-12T22:28:44.382Z,10.84
2023-04-12T22:31:16.156Z,10.45
2023-04-12T22:33:48.057Z,10.77
2023-04-12T22:36:17.659Z,10.75
2023-04-12T22:38:47.580Z,10.72
2023-04-12T22:41:17.460Z,10.69
2023-04-12T22:43:47.651Z,10.69
2023-04-12T22:46:18.799Z,10.67
2023-04-12T22:48:48.209Z,10.68
2023-04-12T22:51:16.910Z,10.69
2023-04-12T22:53:45.399Z,10.71
2023-04-12T22:56:14.163Z,10.71
2023-04-12T22:58:43.136Z,10.71
2023-04-12T23:01:11.870Z,10.68
2023-04-12T23:03:43.092Z,10.52
2023-04-12T23:06:13.339Z,10.65
2023-04-12T23:08:43.601Z,10.64
2023-04-12T23:11:12.335Z,10.64
2023-04-12T23:13:41.053Z,10.62
2023-04-12T23:16:10.008Z,10.58
2023-04-12T23:18:38.964Z,10.57
2023-04-12T23:21:11.916Z,10.45
2023-04-12T23:23:40.661Z,10.36
2023-04-12T23:26:10.784Z,10.33
2023-04-12T23:28:40.339Z,10.35
2023-04-12T23:31:09.840Z,10.38
2023-04-12T23:33:43.362Z,10.41
2023-04-12T23:36:14.454Z,10.13
2023-04-12T23:38:44.238Z,10.40
2023-04-12T23:41:13.117Z,10.31
2023-04-12T23:43:41.873Z,10.21
2023-04-12T23:46:11.087Z,10.10
2023-04-12T23:48:39.877Z,10.04
2023-04-12T23:51:08.930Z,10.02
2023-04-12T23:53:38.859Z,10.02
2023-04-12T23:56:08.932Z,10.06
2023-04-12T23:58:37.626Z,10.11
